sensor_id;sensor_type;location;lat;lon;timestamp;P1;durP1;ratioP1;P2;durP2;ratioP2
823;SDS011;373;49.342;8.146;2023-03-31T00:01:28;4.43;;;1.40;;
823;SDS011;373;49.342;8.146;2023-03-31T00:03:58;6.03;;;1.60;;
823;SDS011;373;49.342;8.146;2023-03-31T00:06:28;4.05;;;1.38;;
823;SDS011;373;49.342;8.146;2023-03-31T00:08:56;4.53;;;1.50;;
823;SDS011;373;49.342;8.146;2023-03-31T00:11:26;5.32;;;1.95;;
823;SDS011;373;49.342;8.146;2023-03-31T00:13:55;4.15;;;1.95;;
823;SDS011;373;49.342;8.146;2023-03-31T00:16:22;4.70;;;1.90;;
823;SDS011;373;49.342;8.146;2023-03-31T00:18:50;6.28;;;1.83;;
823;SDS011;373;49.342;8.146;2023-03-31T00:21:18;7.45;;;1.58;;
823;SDS011;373;49.342;8.146;2023-03-31T00:23:50;5.32;;;1.50;;
823;SDS011;373;49.342;8.146;2023-03-31T00:26:18;6.43;;;2.13;;
823;SDS011;373;49.342;8.146;2023-03-31T00:28:46;3.70;;;1.55;;
823;SDS011;373;49.342;8.146;2023-03-31T00:31:14;5.50;;;1.55;;
823;SDS011;373;49.342;8.146;2023-03-31T00:33:45;5.43;;;1.52;;
823;SDS011;373;49.342;8.146;2023-03-31T00:36:12;4.05;;;1.42;;
823;SDS011;373;49.342;8.146;2023-03-31T00:38:45;5.07;;;1.55;;
823;SDS011;373;49.342;8.146;2023-03-31T00:41:12;7.28;;;1.38;;
823;SDS011;373;49.342;8.146;2023-03-31T00:43:40;7.47;;;2.10;;
823;SDS011;373;49.342;8.146;2023-03-31T00:46:10;6.40;;;1.35;;
823;SDS011;373;49.342;8.146;2023-03-31T00:48:44;4.97;;;1.73;;
823;SDS011;373;49.342;8.146;2023-03-31T00:51:15;4.30;;;1.42;;
823;SDS011;373;49.342;8.146;2023-03-31T00:53:43;5.40;;;1.63;;
823;SDS011;373;49.342;8.146;2023-03-31T00:56:16;6.13;;;1.92;;
823;SDS011;373;49.342;8.146;2023-03-31T00:58:43;4.63;;;1.85;;
823;SDS011;373;49.342;8.146;2023-03-31T01:01:13;4.90;;;1.20;;
823;SDS011;373;49.342;8.146;2023-03-31T01:03:45;5.88;;;1.63;;
823;SDS011;373;49.342;8.146;2023-03-31T01:06:13;6.15;;;1.88;;
823;SDS011;373;49.342;8.146;2023-03-31T01:08:44;4.57;;;1.98;;
823;SDS011;373;49.342;8.146;2023-03-31T01:11:16;3.33;;;1.45;;
823;SDS011;373;49.342;8.146;2023-03-31T01:13:46;4.72;;;1.63;;
823;SDS011;373;49.342;8.146;2023-03-31T01:16:16;5.45;;;1.45;;
823;SDS011;373;49.342;8.146;2023-03-31T01:18:45;4.55;;;1.75;;
823;SDS011;373;49.342;8.146;2023-03-31T01:21:27;6.63;;;1.60;;
823;SDS011;373;49.342;8.146;2023-03-31T01:27:36;5.93;;;1.55;;
823;SDS011;373;49.342;8.146;2023-03-31T01:30:21;5.13;;;1.50;;
823;SDS011;373;49.342;8.146;2023-03-31T01:39:25;3.35;;;1.40;;
823;SDS011;373;49.342;8.146;2023-03-31T01:42:23;4.82;;;1.55;;
823;SDS011;373;49.342;8.146;2023-03-31T01:44:59;4.10;;;1.70;;
823;SDS011;373;49.342;8.146;2023-03-31T01:47:35;4.03;;;1.65;;
823;SDS011;373;49.342;8.146;2023-03-31T01:50:05;4.95;;;1.50;;
823;SDS011;373;49.342;8.146;2023-03-31T01:52:36;5.95;;;1.77;;
823;SDS011;373;49.342;8.146;2023-03-31T01:55:08;4.45;;;1.67;;
823;SDS011;373;49.342;8.146;2023-03-31T01:57:44;5.40;;;1.48;;
823;SDS011;373;49.342;8.146;2023-03-31T02:00:17;4.15;;;1.55;;
823;SDS011;373;49.342;8.146;2023-03-31T02:02:52;7.80;;;2.50;;
823;SDS011;373;49.342;8.146;2023-03-31T02:05:24;3.65;;;1.60;;
823;SDS011;373;49.342;8.146;2023-03-31T02:07:56;5.60;;;1.65;;
823;SDS011;373;49.342;8.146;2023-03-31T02:10:28;5.55;;;1.50;;
823;SDS011;373;49.342;8.146;2023-03-31T02:12:59;3.72;;;1.17;;
823;SDS011;373;49.342;8.146;2023-03-31T02:15:29;3.42;;;1.00;;
823;SDS011;373;49.342;8.146;2023-03-31T02:18:05;2.83;;;0.85;;
823;SDS011;373;49.342;8.146;2023-03-31T02:20:36;2.38;;;1.23;;
823;SDS011;373;49.342;8.146;2023-03-31T02:23:06;4.38;;;1.38;;
823;SDS011;373;49.342;8.146;2023-03-31T02:25:35;2.88;;;1.17;;
823;SDS011;373;49.342;8.146;2023-03-31T02:28:12;4.38;;;1.20;;
823;SDS011;373;49.342;8.146;2023-03-31T02:30:45;1.50;;;0.88;;
823;SDS011;373;49.342;8.146;2023-03-31T02:33:19;1.77;;;1.00;;
823;SDS011;373;49.342;8.146;2023-03-31T02:35:46;4.25;;;1.08;;
823;SDS011;373;49.342;8.146;2023-03-31T02:38:13;3.40;;;1.00;;
823;SDS011;373;49.342;8.146;2023-03-31T02:40:40;2.35;;;1.05;;
823;SDS011;373;49.342;8.146;2023-03-31T02:43:07;4.55;;;1.05;;
823;SDS011;373;49.342;8.146;2023-03-31T02:45:43;3.63;;;1.20;;
823;SDS011;373;49.342;8.146;2023-03-31T02:48:13;2.22;;;0.98;;
823;SDS011;373;49.342;8.146;2023-03-31T02:54:08;2.78;;;1.10;;
823;SDS011;373;49.342;8.146;2023-03-31T02:57:00;3.83;;;1.25;;
823;SDS011;373;49.342;8.146;2023-03-31T02:59:47;5.03;;;1.38;;
823;SDS011;373;49.342;8.146;2023-03-31T03:02:26;4.18;;;1.10;;
823;SDS011;373;49.342;8.146;2023-03-31T03:05:08;2.90;;;1.20;;
823;SDS011;373;49.342;8.146;2023-03-31T03:07:53;5.30;;;1.38;;
823;SDS011;373;49.342;8.146;2023-03-31T03:10:27;6.32;;;1.80;;
823;SDS011;373;49.342;8.146;2023-03-31T03:13:03;5.13;;;1.05;;
823;SDS011;373;49.342;8.146;2023-03-31T03:15:34;3.58;;;1.83;;
823;SDS011;373;49.342;8.146;2023-03-31T03:18:06;4.40;;;1.50;;
823;SDS011;373;49.342;8.146;2023-03-31T03:20:33;2.60;;;1.40;;
823;SDS011;373;49.342;8.146;2023-03-31T03:23:02;5.00;;;1.33;;
823;SDS011;373;49.342;8.146;2023-03-31T03:25:29;5.53;;;1.65;;
823;SDS011;373;49.342;8.146;2023-03-31T03:27:56;3.10;;;1.60;;
823;SDS011;373;49.342;8.146;2023-03-31T03:30:23;5.13;;;1.70;;
823;SDS011;373;49.342;8.146;2023-03-31T03:32:51;3.17;;;1.00;;
823;SDS011;373;49.342;8.146;2023-03-31T03:35:20;4.38;;;1.52;;
823;SDS011;373;49.342;8.146;2023-03-31T03:37:47;3.63;;;1.30;;
823;SDS011;373;49.342;8.146;2023-03-31T03:40:14;3.78;;;1.30;;
823;SDS011;373;49.342;8.146;2023-03-31T03:42:41;3.90;;;1.80;;
823;SDS011;373;49.342;8.146;2023-03-31T03:45:08;4.55;;;1.63;;
823;SDS011;373;49.342;8.146;2023-03-31T03:47:36;6.60;;;1.27;;
823;SDS011;373;49.342;8.146;2023-03-31T03:50:03;6.50;;;1.38;;
823;SDS011;373;49.342;8.146;2023-03-31T03:52:32;4.40;;;1.55;;
823;SDS011;373;49.342;8.146;2023-03-31T03:54:59;3.00;;;1.33;;
823;SDS011;373;49.342;8.146;2023-03-31T03:57:27;2.75;;;1.17;;
823;SDS011;373;49.342;8.146;2023-03-31T03:59:54;3.40;;;1.05;;
823;SDS011;373;49.342;8.146;2023-03-31T04:02:21;3.75;;;1.35;;
823;SDS011;373;49.342;8.146;2023-03-31T04:04:48;6.05;;;1.42;;
823;SDS011;373;49.342;8.146;2023-03-31T04:07:16;5.03;;;1.60;;
823;SDS011;373;49.342;8.146;2023-03-31T04:09:45;3.45;;;1.33;;
823;SDS011;373;49.342;8.146;2023-03-31T04:12:12;3.60;;;1.50;;
823;SDS011;373;49.342;8.146;2023-03-31T04:14:39;4.35;;;1.63;;
823;SDS011;373;49.342;8.146;2023-03-31T04:17:06;5.28;;;1.45;;
823;SDS011;373;49.342;8.146;2023-03-31T04:19:34;4.80;;;1.48;;
823;SDS011;373;49.342;8.146;2023-03-31T04:22:02;5.38;;;1.75;;
823;SDS011;373;49.342;8.146;2023-03-31T04:24:29;4.65;;;2.03;;
823;SDS011;373;49.342;8.146;2023-03-31T04:26:59;4.65;;;1.42;;
823;SDS011;373;49.342;8.146;2023-03-31T04:29:27;8.77;;;1.92;;
823;SDS011;373;49.342;8.146;2023-03-31T04:31:57;3.83;;;1.98;;
823;SDS011;373;49.342;8.146;2023-03-31T04:34:25;6.30;;;1.65;;
823;SDS011;373;49.342;8.146;2023-03-31T04:36:59;5.63;;;2.05;;
823;SDS011;373;49.342;8.146;2023-03-31T04:39:27;8.38;;;2.30;;
823;SDS011;373;49.342;8.146;2023-03-31T04:41:56;4.85;;;1.80;;
823;SDS011;373;49.342;8.146;2023-03-31T04:44:26;3.63;;;1.85;;
823;SDS011;373;49.342;8.146;2023-03-31T04:46:53;4.55;;;2.25;;
823;SDS011;373;49.342;8.146;2023-03-31T04:49:20;5.15;;;1.90;;
823;SDS011;373;49.342;8.146;2023-03-31T04:51:48;6.13;;;1.70;;
823;SDS011;373;49.342;8.146;2023-03-31T04:54:15;3.17;;;1.90;;
823;SDS011;373;49.342;8.146;2023-03-31T04:56:42;3.92;;;1.70;;
823;SDS011;373;49.342;8.146;2023-03-31T04:59:09;5.55;;;1.85;;
823;SDS011;373;49.342;8.146;2023-03-31T05:01:38;5.05;;;2.15;;
823;SDS011;373;49.342;8.146;2023-03-31T05:04:09;4.45;;;1.73;;
823;SDS011;373;49.342;8.146;2023-03-31T05:06:38;5.22;;;2.20;;
823;SDS011;373;49.342;8.146;2023-03-31T05:09:05;6.70;;;2.50;;
823;SDS011;373;49.342;8.146;2023-03-31T05:11:37;4.90;;;2.08;;
823;SDS011;373;49.342;8.146;2023-03-31T05:14:10;5.40;;;2.25;;
823;SDS011;373;49.342;8.146;2023-03-31T05:16:41;5.70;;;2.20;;
823;SDS011;373;49.342;8.146;2023-03-31T05:19:14;7.65;;;2.00;;
823;SDS011;373;49.342;8.146;2023-03-31T05:21:54;4.93;;;2.72;;
823;SDS011;373;49.342;8.146;2023-03-31T05:24:21;6.10;;;2.38;;
823;SDS011;373;49.342;8.146;2023-03-31T05:26:52;5.20;;;2.60;;
823;SDS011;373;49.342;8.146;2023-03-31T05:29:20;7.93;;;2.67;;
823;SDS011;373;49.342;8.146;2023-03-31T05:31:50;6.63;;;2.55;;
823;SDS011;373;49.342;8.146;2023-03-31T05:34:20;8.05;;;2.47;;
823;SDS011;373;49.342;8.146;2023-03-31T05:36:48;5.90;;;2.78;;
823;SDS011;373;49.342;8.146;2023-03-31T05:39:18;5.40;;;2.60;;
823;SDS011;373;49.342;8.146;2023-03-31T05:41:45;5.35;;;2.60;;
823;SDS011;373;49.342;8.146;2023-03-31T05:44:13;6.65;;;2.55;;
823;SDS011;373;49.342;8.146;2023-03-31T05:46:45;6.40;;;2.53;;
823;SDS011;373;49.342;8.146;2023-03-31T05:49:13;6.85;;;2.28;;
823;SDS011;373;49.342;8.146;2023-03-31T05:51:41;4.28;;;2.30;;
823;SDS011;373;49.342;8.146;2023-03-31T05:54:09;5.47;;;2.92;;
823;SDS011;373;49.342;8.146;2023-03-31T05:56:36;6.82;;;2.80;;
823;SDS011;373;49.342;8.146;2023-03-31T05:59:03;6.10;;;4.20;;
823;SDS011;373;49.342;8.146;2023-03-31T06:01:34;8.30;;;3.50;;
823;SDS011;373;49.342;8.146;2023-03-31T06:04:02;4.85;;;3.10;;
823;SDS011;373;49.342;8.146;2023-03-31T06:09:15;6.97;;;3.80;;
823;SDS011;373;49.342;8.146;2023-03-31T06:11:46;6.53;;;4.10;;
823;SDS011;373;49.342;8.146;2023-03-31T06:14:19;9.02;;;4.82;;
823;SDS011;373;49.342;8.146;2023-03-31T06:16:46;7.53;;;4.97;;
823;SDS011;373;49.342;8.146;2023-03-31T06:19:22;7.68;;;5.18;;
823;SDS011;373;49.342;8.146;2023-03-31T06:21:57;7.57;;;4.60;;
823;SDS011;373;49.342;8.146;2023-03-31T06:24:24;7.78;;;4.82;;
823;SDS011;373;49.342;8.146;2023-03-31T06:26:52;8.10;;;4.78;;
823;SDS011;373;49.342;8.146;2023-03-31T06:29:19;11.52;;;5.50;;
823;SDS011;373;49.342;8.146;2023-03-31T06:31:46;7.45;;;5.72;;
823;SDS011;373;49.342;8.146;2023-03-31T06:34:13;8.13;;;4.88;;
823;SDS011;373;49.342;8.146;2023-03-31T06:36:40;8.27;;;5.32;;
823;SDS011;373;49.342;8.146;2023-03-31T06:39:08;6.63;;;5.32;;
823;SDS011;373;49.342;8.146;2023-03-31T06:41:35;13.15;;;6.20;;
823;SDS011;373;49.342;8.146;2023-03-31T06:44:03;8.05;;;5.93;;
823;SDS011;373;49.342;8.146;2023-03-31T06:46:32;8.95;;;5.30;;
823;SDS011;373;49.342;8.146;2023-03-31T06:49:02;9.15;;;5.93;;
823;SDS011;373;49.342;8.146;2023-03-31T06:51:29;8.63;;;6.38;;
823;SDS011;373;49.342;8.146;2023-03-31T06:53:56;9.70;;;6.00;;
823;SDS011;373;49.342;8.146;2023-03-31T06:56:24;8.75;;;6.50;;
823;SDS011;373;49.342;8.146;2023-03-31T06:58:52;13.23;;;6.35;;
823;SDS011;373;49.342;8.146;2023-03-31T07:01:19;9.25;;;5.80;;
823;SDS011;373;49.342;8.146;2023-03-31T07:03:46;10.02;;;6.78;;
823;SDS011;373;49.342;8.146;2023-03-31T07:06:13;11.38;;;7.72;;
823;SDS011;373;49.342;8.146;2023-03-31T07:08:40;10.23;;;7.15;;
823;SDS011;373;49.342;8.146;2023-03-31T07:11:07;12.80;;;6.75;;
823;SDS011;373;49.342;8.146;2023-03-31T07:13:36;9.82;;;7.20;;
823;SDS011;373;49.342;8.146;2023-03-31T07:16:03;13.63;;;7.10;;
823;SDS011;373;49.342;8.146;2023-03-31T07:18:32;9.07;;;6.30;;
823;SDS011;373;49.342;8.146;2023-03-31T07:20:59;9.82;;;6.43;;
823;SDS011;373;49.342;8.146;2023-03-31T07:23:26;10.85;;;6.35;;
823;SDS011;373;49.342;8.146;2023-03-31T07:25:53;11.52;;;7.03;;
823;SDS011;373;49.342;8.146;2023-03-31T07:28:20;8.05;;;5.78;;
823;SDS011;373;49.342;8.146;2023-03-31T07:30:48;6.45;;;5.50;;
823;SDS011;373;49.342;8.146;2023-03-31T07:33:15;8.13;;;6.10;;
823;SDS011;373;49.342;8.146;2023-03-31T07:35:42;10.98;;;5.70;;
823;SDS011;373;49.342;8.146;2023-03-31T07:38:10;7.22;;;5.82;;
823;SDS011;373;49.342;8.146;2023-03-31T07:40:38;12.93;;;6.50;;
823;SDS011;373;49.342;8.146;2023-03-31T07:43:06;8.27;;;4.85;;
823;SDS011;373;49.342;8.146;2023-03-31T07:45:33;12.10;;;6.53;;
823;SDS011;373;49.342;8.146;2023-03-31T07:48:02;6.07;;;3.70;;
823;SDS011;373;49.342;8.146;2023-03-31T07:50:29;2.65;;;1.92;;
823;SDS011;373;49.342;8.146;2023-03-31T07:52:58;4.30;;;1.77;;
823;SDS011;373;49.342;8.146;2023-03-31T07:55:25;4.15;;;2.15;;
823;SDS011;373;49.342;8.146;2023-03-31T07:57:53;7.53;;;3.72;;
823;SDS011;373;49.342;8.146;2023-03-31T08:00:20;4.85;;;3.20;;
823;SDS011;373;49.342;8.146;2023-03-31T08:02:48;9.25;;;3.58;;
823;SDS011;373;49.342;8.146;2023-03-31T08:05:17;5.38;;;2.97;;
823;SDS011;373;49.342;8.146;2023-03-31T08:07:46;5.35;;;3.65;;
823;SDS011;373;49.342;8.146;2023-03-31T08:10:15;6.00;;;2.70;;
823;SDS011;373;49.342;8.146;2023-03-31T08:12:43;5.65;;;2.75;;
823;SDS011;373;49.342;8.146;2023-03-31T08:15:10;6.32;;;3.00;;
823;SDS011;373;49.342;8.146;2023-03-31T08:17:38;8.55;;;4.25;;
823;SDS011;373;49.342;8.146;2023-03-31T08:20:05;5.30;;;2.75;;
823;SDS011;373;49.342;8.146;2023-03-31T08:22:36;6.97;;;3.13;;
823;SDS011;373;49.342;8.146;2023-03-31T08:25:03;5.60;;;3.35;;
823;SDS011;373;49.342;8.146;2023-03-31T08:27:32;6.75;;;2.75;;
823;SDS011;373;49.342;8.146;2023-03-31T08:30:00;7.38;;;3.17;;
823;SDS011;373;49.342;8.146;2023-03-31T08:32:29;7.32;;;3.15;;
823;SDS011;373;49.342;8.146;2023-03-31T08:34:57;6.20;;;2.72;;
823;SDS011;373;49.342;8.146;2023-03-31T08:37:24;5.78;;;2.80;;
823;SDS011;373;49.342;8.146;2023-03-31T08:39:53;8.73;;;3.40;;
823;SDS011;373;49.342;8.146;2023-03-31T08:42:23;4.68;;;2.90;;
823;SDS011;373;49.342;8.146;2023-03-31T08:44:56;5.93;;;2.95;;
823;SDS011;373;49.342;8.146;2023-03-31T08:47:28;6.55;;;2.55;;
823;SDS011;373;49.342;8.146;2023-03-31T08:49:58;6.13;;;2.38;;
823;SDS011;373;49.342;8.146;2023-03-31T08:52:31;7.38;;;2.22;;
823;SDS011;373;49.342;8.146;2023-03-31T08:55:05;2.78;;;1.88;;
823;SDS011;373;49.342;8.146;2023-03-31T08:57:37;3.88;;;1.90;;
823;SDS011;373;49.342;8.146;2023-03-31T09:00:12;6.72;;;2.78;;
823;SDS011;373;49.342;8.146;2023-03-31T09:02:42;3.25;;;1.55;;
823;SDS011;373;49.342;8.146;2023-03-31T09:05:22;6.10;;;2.35;;
823;SDS011;373;49.342;8.146;2023-03-31T09:08:00;5.00;;;2.28;;
823;SDS011;373;49.342;8.146;2023-03-31T09:10:40;6.40;;;2.25;;
823;SDS011;373;49.342;8.146;2023-03-31T09:13:20;4.65;;;1.65;;
823;SDS011;373;49.342;8.146;2023-03-31T09:16:03;3.85;;;1.50;;
823;SDS011;373;49.342;8.146;2023-03-31T09:18:36;5.45;;;2.10;;
823;SDS011;373;49.342;8.146;2023-03-31T09:21:06;6.25;;;2.25;;
823;SDS011;373;49.342;8.146;2023-03-31T09:23:41;4.95;;;2.22;;
823;SDS011;373;49.342;8.146;2023-03-31T09:26:17;5.78;;;2.30;;
823;SDS011;373;49.342;8.146;2023-03-31T09:28:49;5.57;;;2.35;;
823;SDS011;373;49.342;8.146;2023-03-31T09:31:18;5.18;;;2.13;;
823;SDS011;373;49.342;8.146;2023-03-31T09:33:47;5.03;;;2.03;;
823;SDS011;373;49.342;8.146;2023-03-31T09:36:18;6.88;;;2.25;;
823;SDS011;373;49.342;8.146;2023-03-31T09:38:48;4.63;;;2.00;;
823;SDS011;373;49.342;8.146;2023-03-31T09:41:16;5.20;;;1.80;;
823;SDS011;373;49.342;8.146;2023-03-31T09:43:45;4.50;;;2.03;;
823;SDS011;373;49.342;8.146;2023-03-31T09:46:18;5.95;;;2.30;;
823;SDS011;373;49.342;8.146;2023-03-31T09:48:51;7.20;;;1.90;;
823;SDS011;373;49.342;8.146;2023-03-31T09:51:25;8.02;;;2.33;;
823;SDS011;373;49.342;8.146;2023-03-31T09:53:57;7.35;;;2.15;;
823;SDS011;373;49.342;8.146;2023-03-31T09:56:36;4.18;;;1.90;;
823;SDS011;373;49.342;8.146;2023-03-31T09:59:13;7.18;;;2.05;;
823;SDS011;373;49.342;8.146;2023-03-31T10:01:43;6.53;;;2.30;;
823;SDS011;373;49.342;8.146;2023-03-31T10:04:16;4.07;;;1.50;;
823;SDS011;373;49.342;8.146;2023-03-31T10:06:47;5.85;;;1.67;;
823;SDS011;373;49.342;8.146;2023-03-31T10:09:14;6.47;;;2.42;;
823;SDS011;373;49.342;8.146;2023-03-31T10:11:54;4.00;;;1.70;;
823;SDS011;373;49.342;8.146;2023-03-31T10:14:23;4.70;;;2.13;;
823;SDS011;373;49.342;8.146;2023-03-31T10:16:53;6.00;;;2.45;;
823;SDS011;373;49.342;8.146;2023-03-31T10:19:22;5.68;;;2.22;;
823;SDS011;373;49.342;8.146;2023-03-31T10:21:54;6.90;;;2.03;;
823;SDS011;373;49.342;8.146;2023-03-31T10:24:22;6.70;;;1.65;;
823;SDS011;373;49.342;8.146;2023-03-31T10:26:52;4.43;;;1.83;;
823;SDS011;373;49.342;8.146;2023-03-31T10:29:24;7.15;;;1.77;;
823;SDS011;373;49.342;8.146;2023-03-31T10:31:55;10.25;;;3.05;;
823;SDS011;373;49.342;8.146;2023-03-31T10:34:28;4.05;;;2.00;;
823;SDS011;373;49.342;8.146;2023-03-31T10:36:56;5.25;;;2.03;;
823;SDS011;373;49.342;8.146;2023-03-31T10:39:26;3.30;;;1.55;;
823;SDS011;373;49.342;8.146;2023-03-31T10:41:58;4.72;;;1.40;;
823;SDS011;373;49.342;8.146;2023-03-31T10:44:30;7.32;;;1.65;;
823;SDS011;373;49.342;8.146;2023-03-31T10:47:02;5.38;;;1.63;;
823;SDS011;373;49.342;8.146;2023-03-31T10:49:35;4.97;;;1.67;;
823;SDS011;373;49.342;8.146;2023-03-31T10:52:12;3.53;;;0.90;;
823;SDS011;373;49.342;8.146;2023-03-31T10:54:46;3.60;;;1.25;;
823;SDS011;373;49.342;8.146;2023-03-31T10:57:21;5.53;;;1.85;;
823;SDS011;373;49.342;8.146;2023-03-31T10:59:58;3.15;;;1.23;;
823;SDS011;373;49.342;8.146;2023-03-31T11:05:44;4.22;;;1.80;;
823;SDS011;373;49.342;8.146;2023-03-31T11:08:25;5.88;;;2.35;;
823;SDS011;373;49.342;8.146;2023-03-31T11:11:03;3.30;;;1.48;;
823;SDS011;373;49.342;8.146;2023-03-31T11:13:41;4.38;;;1.75;;
823;SDS011;373;49.342;8.146;2023-03-31T11:16:17;6.35;;;1.98;;
823;SDS011;373;49.342;8.146;2023-03-31T11:18:54;6.25;;;2.08;;
823;SDS011;373;49.342;8.146;2023-03-31T11:21:31;5.43;;;1.38;;
823;SDS011;373;49.342;8.146;2023-03-31T11:24:14;5.18;;;1.20;;
823;SDS011;373;49.342;8.146;2023-03-31T11:26:52;4.82;;;1.80;;
823;SDS011;373;49.342;8.146;2023-03-31T11:29:32;3.30;;;1.25;;
823;SDS011;373;49.342;8.146;2023-03-31T11:32:15;4.45;;;1.40;;
823;SDS011;373;49.342;8.146;2023-03-31T11:34:58;3.17;;;1.23;;
823;SDS011;373;49.342;8.146;2023-03-31T11:37:51;5.28;;;1.92;;
823;SDS011;373;49.342;8.146;2023-03-31T11:40:31;6.10;;;1.70;;
823;SDS011;373;49.342;8.146;2023-03-31T11:43:06;3.22;;;1.27;;
823;SDS011;373;49.342;8.146;2023-03-31T11:45:43;5.05;;;1.33;;
823;SDS011;373;49.342;8.146;2023-03-31T11:48:15;3.63;;;1.50;;
823;SDS011;373;49.342;8.146;2023-03-31T11:50:46;4.97;;;1.70;;
823;SDS011;373;49.342;8.146;2023-03-31T11:53:15;4.28;;;1.55;;
823;SDS011;373;49.342;8.146;2023-03-31T11:55:45;3.28;;;1.52;;
823;SDS011;373;49.342;8.146;2023-03-31T11:58:17;3.63;;;1.30;;
823;SDS011;373;49.342;8.146;2023-03-31T12:00:50;5.32;;;1.98;;
823;SDS011;373;49.342;8.146;2023-03-31T12:03:22;3.08;;;1.23;;
823;SDS011;373;49.342;8.146;2023-03-31T12:05:57;2.58;;;0.60;;
823;SDS011;373;49.342;8.146;2023-03-31T12:08:32;2.53;;;0.73;;
823;SDS011;373;49.342;8.146;2023-03-31T12:11:06;1.80;;;0.60;;
823;SDS011;373;49.342;8.146;2023-03-31T12:13:38;0.85;;;0.45;;
823;SDS011;373;49.342;8.146;2023-03-31T12:16:12;0.65;;;0.30;;
823;SDS011;373;49.342;8.146;2023-03-31T12:18:44;1.85;;;0.82;;
823;SDS011;373;49.342;8.146;2023-03-31T12:21:22;2.13;;;0.45;;
823;SDS011;373;49.342;8.146;2023-03-31T12:23:52;1.58;;;0.43;;
823;SDS011;373;49.342;8.146;2023-03-31T12:26:28;1.35;;;0.57;;
823;SDS011;373;49.342;8.146;2023-03-31T12:29:03;1.17;;;0.60;;
823;SDS011;373;49.342;8.146;2023-03-31T12:31:41;0.60;;;0.40;;
823;SDS011;373;49.342;8.146;2023-03-31T12:34:12;0.95;;;0.50;;
823;SDS011;373;49.342;8.146;2023-03-31T12:36:45;1.27;;;0.60;;
823;SDS011;373;49.342;8.146;2023-03-31T12:39:27;2.38;;;0.88;;
823;SDS011;373;49.342;8.146;2023-03-31T12:42:10;2.95;;;1.00;;
823;SDS011;373;49.342;8.146;2023-03-31T12:44:57;2.25;;;0.57;;
823;SDS011;373;49.342;8.146;2023-03-31T12:47:35;2.05;;;0.93;;
823;SDS011;373;49.342;8.146;2023-03-31T12:50:17;4.35;;;0.93;;
823;SDS011;373;49.342;8.146;2023-03-31T12:52:59;2.58;;;0.65;;
823;SDS011;373;49.342;8.146;2023-03-31T12:55:37;2.78;;;1.17;;
823;SDS011;373;49.342;8.146;2023-03-31T13:01:07;4.53;;;1.05;;
823;SDS011;373;49.342;8.146;2023-03-31T13:03:49;3.17;;;0.88;;
823;SDS011;373;49.342;8.146;2023-03-31T13:06:47;4.35;;;0.98;;
823;SDS011;373;49.342;8.146;2023-03-31T13:12:11;2.15;;;1.20;;
823;SDS011;373;49.342;8.146;2023-03-31T13:14:41;2.83;;;1.00;;
823;SDS011;373;49.342;8.146;2023-03-31T13:17:12;2.50;;;0.82;;
823;SDS011;373;49.342;8.146;2023-03-31T13:19:49;3.60;;;0.98;;
823;SDS011;373;49.342;8.146;2023-03-31T13:27:52;1.85;;;1.00;;
823;SDS011;373;49.342;8.146;2023-03-31T13:33:19;3.90;;;1.15;;
823;SDS011;373;49.342;8.146;2023-03-31T13:35:56;4.40;;;1.10;;
823;SDS011;373;49.342;8.146;2023-03-31T13:38:36;3.80;;;1.48;;
823;SDS011;373;49.342;8.146;2023-03-31T13:41:27;4.90;;;1.30;;
823;SDS011;373;49.342;8.146;2023-03-31T13:44:14;3.13;;;1.15;;
823;SDS011;373;49.342;8.146;2023-03-31T13:47:03;2.28;;;1.17;;
823;SDS011;373;49.342;8.146;2023-03-31T13:49:52;3.95;;;1.52;;
823;SDS011;373;49.342;8.146;2023-03-31T13:52:35;6.35;;;1.88;;
823;SDS011;373;49.342;8.146;2023-03-31T13:55:21;3.90;;;1.60;;
823;SDS011;373;49.342;8.146;2023-03-31T13:58:19;4.30;;;1.25;;
823;SDS011;373;49.342;8.146;2023-03-31T14:04:01;2.53;;;1.27;;
823;SDS011;373;49.342;8.146;2023-03-31T14:06:55;1.52;;;0.60;;
823;SDS011;373;49.342;8.146;2023-03-31T14:09:28;3.80;;;0.82;;
823;SDS011;373;49.342;8.146;2023-03-31T14:11:58;2.97;;;0.63;;
823;SDS011;373;49.342;8.146;2023-03-31T14:14:25;3.58;;;0.85;;
823;SDS011;373;49.342;8.146;2023-03-31T14:16:54;4.57;;;1.27;;
823;SDS011;373;49.342;8.146;2023-03-31T14:19:38;3.78;;;1.38;;
823;SDS011;373;49.342;8.146;2023-03-31T14:22:18;2.92;;;1.05;;
823;SDS011;373;49.342;8.146;2023-03-31T14:24:57;3.22;;;1.40;;
823;SDS011;373;49.342;8.146;2023-03-31T14:27:38;3.00;;;1.33;;
823;SDS011;373;49.342;8.146;2023-03-31T14:30:13;5.88;;;1.40;;
823;SDS011;373;49.342;8.146;2023-03-31T14:32:48;3.97;;;1.30;;
823;SDS011;373;49.342;8.146;2023-03-31T14:35:27;3.97;;;1.35;;
823;SDS011;373;49.342;8.146;2023-03-31T14:38:03;4.10;;;1.20;;
823;SDS011;373;49.342;8.146;2023-03-31T14:40:36;5.40;;;1.60;;
823;SDS011;373;49.342;8.146;2023-03-31T14:43:16;5.30;;;1.20;;
823;SDS011;373;49.342;8.146;2023-03-31T14:45:44;4.68;;;1.23;;
823;SDS011;373;49.342;8.146;2023-03-31T14:48:12;1.90;;;0.98;;
823;SDS011;373;49.342;8.146;2023-03-31T14:50:41;2.20;;;0.80;;
823;SDS011;373;49.342;8.146;2023-03-31T14:53:12;2.75;;;1.00;;
823;SDS011;373;49.342;8.146;2023-03-31T14:55:41;3.75;;;1.13;;
823;SDS011;373;49.342;8.146;2023-03-31T14:58:12;3.75;;;1.10;;
823;SDS011;373;49.342;8.146;2023-03-31T15:00:41;1.85;;;0.80;;
823;SDS011;373;49.342;8.146;2023-03-31T15:03:11;4.50;;;1.15;;
823;SDS011;373;49.342;8.146;2023-03-31T15:05:40;4.68;;;1.40;;
823;SDS011;373;49.342;8.146;2023-03-31T15:08:10;4.10;;;1.48;;
823;SDS011;373;49.342;8.146;2023-03-31T15:10:44;6.20;;;1.42;;
823;SDS011;373;49.342;8.146;2023-03-31T15:13:16;5.07;;;1.50;;
823;SDS011;373;49.342;8.146;2023-03-31T15:15:46;3.13;;;1.17;;
823;SDS011;373;49.342;8.146;2023-03-31T15:18:14;5.60;;;1.20;;
823;SDS011;373;49.342;8.146;2023-03-31T15:20:42;4.28;;;1.02;;
823;SDS011;373;49.342;8.146;2023-03-31T15:23:18;2.67;;;1.25;;
823;SDS011;373;49.342;8.146;2023-03-31T15:25:50;5.63;;;1.80;;
823;SDS011;373;49.342;8.146;2023-03-31T15:28:22;3.05;;;1.10;;
823;SDS011;373;49.342;8.146;2023-03-31T15:30:51;4.03;;;1.02;;
823;SDS011;373;49.342;8.146;2023-03-31T15:33:19;3.40;;;1.00;;
823;SDS011;373;49.342;8.146;2023-03-31T15:35:58;1.85;;;1.25;;
823;SDS011;373;49.342;8.146;2023-03-31T15:38:25;2.80;;;1.02;;
823;SDS011;373;49.342;8.146;2023-03-31T15:40:57;3.90;;;1.20;;
823;SDS011;373;49.342;8.146;2023-03-31T15:43:28;1.95;;;0.70;;
823;SDS011;373;49.342;8.146;2023-03-31T15:45:57;4.40;;;1.48;;
823;SDS011;373;49.342;8.146;2023-03-31T15:48:27;3.25;;;1.05;;
823;SDS011;373;49.342;8.146;2023-03-31T15:50:58;2.53;;;0.90;;
823;SDS011;373;49.342;8.146;2023-03-31T15:53:28;3.72;;;1.20;;
823;SDS011;373;49.342;8.146;2023-03-31T15:55:58;2.72;;;0.93;;
823;SDS011;373;49.342;8.146;2023-03-31T15:58:45;2.65;;;1.05;;
823;SDS011;373;49.342;8.146;2023-03-31T16:01:18;3.22;;;1.13;;
823;SDS011;373;49.342;8.146;2023-03-31T16:03:45;1.85;;;0.75;;
823;SDS011;373;49.342;8.146;2023-03-31T16:06:18;3.90;;;1.52;;
823;SDS011;373;49.342;8.146;2023-03-31T16:08:50;4.43;;;1.10;;
823;SDS011;373;49.342;8.146;2023-03-31T16:11:24;2.47;;;0.80;;
823;SDS011;373;49.342;8.146;2023-03-31T16:13:55;4.78;;;0.98;;
823;SDS011;373;49.342;8.146;2023-03-31T16:16:25;5.13;;;1.33;;
823;SDS011;373;49.342;8.146;2023-03-31T16:18:54;3.03;;;1.10;;
823;SDS011;373;49.342;8.146;2023-03-31T16:21:29;3.28;;;1.30;;
823;SDS011;373;49.342;8.146;2023-03-31T16:24:02;1.55;;;1.00;;
823;SDS011;373;49.342;8.146;2023-03-31T16:26:31;4.15;;;1.10;;
823;SDS011;373;49.342;8.146;2023-03-31T16:28:58;3.33;;;1.00;;
823;SDS011;373;49.342;8.146;2023-03-31T16:31:27;4.15;;;1.38;;
823;SDS011;373;49.342;8.146;2023-03-31T16:33:58;3.13;;;1.40;;
823;SDS011;373;49.342;8.146;2023-03-31T16:36:26;1.42;;;0.63;;
823;SDS011;373;49.342;8.146;2023-03-31T16:38:53;3.03;;;1.30;;
823;SDS011;373;49.342;8.146;2023-03-31T16:41:21;2.55;;;1.00;;
823;SDS011;373;49.342;8.146;2023-03-31T16:43:50;2.85;;;1.20;;
823;SDS011;373;49.342;8.146;2023-03-31T16:46:18;1.90;;;0.80;;
823;SDS011;373;49.342;8.146;2023-03-31T16:48:46;2.35;;;0.63;;
823;SDS011;373;49.342;8.146;2023-03-31T16:51:13;3.60;;;0.80;;